Terminal Aerodrome Forecast
Issued by NWS Pueblo, CO

Home | Current Version | Previous Version | Text Only | Print | Product List | Glossary On
Versions: 1 2 3 4 5 6 7 8 9 10 11 12 13 14 15 16 17 18 19 20 21 22
000
FTUS45 KPUB 250206 AAB
TAFALS
TAF AMD
KALS 250206Z 2502/2524 13006KT P6SM VCSH SCT030 BKN060
      TEMPO 2502/2505 3SM -SN BR BKN030
     FM250600 VRB05KT P6SM FEW008 SCT120
     FM250900 VRB03KT 1SM BR OVC004
     FM251500 VRB06KT P6SM SCT005 OVC010
     FM251900 13008KT P6SM VCSH SCT015 BKN030=

USA.gov is the U.S. government's official web portal to all federal, state and local government web resources and services.